EDT,Max TemperatureF,Mean TemperatureF,Min TemperatureF,Max Dew PointF,MeanDew PointF,Min DewpointF,Max Humidity, Mean Humidity, Min Humidity, Max Sea Level PressureIn, Mean Sea Level PressureIn, Min Sea Level PressureIn, Max VisibilityMiles, Mean VisibilityMiles, Min VisibilityMiles, Max Wind SpeedMPH, Mean Wind SpeedMPH, Max Gust SpeedMPH,PrecipitationIn, CloudCover, Events, WindDirDegrees
2014-5-1,60,53,46,61,52,45,100,99,90,30.16,29.85,29.68,8,2,0,24,15,34,0.16,8,Fog-Rain,196
2014-5-2,66,56,46,52,44,37,100,71,40,29.83,29.72,29.67,10,8,0,24,9,32,0.01,4,Fog-Rain,266
2014-5-3,66,50,35,46,39,36,100,61,29,29.88,29.82,29.77,10,9,2,18,6,24,0.00,2,,227
2014-5-4,62,55,48,48,42,34,93,64,38,29.76,29.63,29.55,10,10,5,30,14,41,0.02,4,Rain,246
2014-5-5,59,50,41,50,43,37,100,70,40,29.85,29.74,29.61,10,10,4,14,9,21,0.01,7,Rain,312
2014-5-6,64,52,39,42,37,30,100,55,32,30.02,29.89,29.83,10,10,9,15,5,26,0.00,4,,326
2014-5-7,62,48,35,42,34,30,93,55,27,30.22,30.15,30.03,10,10,10,14,7,20,0.00,1,,259
2014-5-8,64,53,42,54,47,37,100,77,36,30.21,30.17,30.11,10,9,0,17,7,23,0.00,4,Fog,235
2014-5-9,57,52,48,55,49,37,100,83,43,30.25,30.19,30.11,10,10,0,15,5,17,0.00,8,Fog,150
2014-5-10,68,61,54,61,57,48,100,85,73,30.11,29.91,29.82,10,9,1,20,14,29,0.01,5,,209
2014-5-11,71,61,50,57,49,43,100,65,38,30.04,29.93,29.82,10,9,4,24,12,37,0.04,2,Rain,251
2014-5-12,80,63,46,55,46,37,93,58,21,30.13,30.07,30.04,10,10,6,22,6,32,0.00,0,,240
2014-5-13,57,50,44,52,43,39,87,74,56,30.33,30.24,30.04,10,10,10,22,13,30,0.00,6,,46
2014-5-14,62,53,44,54,47,41,94,80,60,30.35,30.32,30.30,10,10,8,17,6,18,0.00,5,,126
2014-5-15,73,64,54,63,58,51,94,80,64,30.32,30.28,30.24,10,10,9,22,10,25,0.00,5,,167
2014-5-16,73,64,54,61,59,51,94,82,61,30.24,30.13,30.03,10,9,4,29,15,36,0.00,6,Rain,160
2014-5-17,71,61,51,63,55,45,100,77,46,30.06,29.97,29.89,10,8,0,30,18,40,0.43,4,Fog-Rain,208
2014-5-18,64,57,50,50,44,39,94,63,45,30.09,30.05,30.02,10,10,10,16,6,24,0.00,3,,344
2014-5-19,64,55,46,48,40,34,94,58,27,30.08,30.04,30.00,10,10,8,20,8,29,0.00,5,Rain,323
2014-5-20,66,57,46,50,46,43,94,71,43,30.02,29.98,29.96,10,10,5,15,7,23,0.04,4,Rain,337
2014-5-21,69,56,44,54,49,43,100,77,43,30.00,29.97,29.94,10,10,0,14,4,15,0.00,1,Fog,112
2014-5-22,62,54,47,55,51,45,100,90,63,29.97,29.91,29.87,10,9,0,15,6,,0.01,6,Fog-Rain,125
2014-5-23,64,58,51,54,51,48,100,82,58,29.95,29.91,29.88,10,10,5,14,5,16,0.01,7,Rain,104
2014-5-24,60,54,48,50,48,43,94,77,50,30.06,29.99,29.89,10,10,10,30,11,23,0.00,5,,33
2014-5-25,64,57,50,52,49,45,94,77,49,30.10,30.07,30.03,10,10,9,14,5,21,0.00,5,,164
2014-5-26,69,60,51,57,55,50,100,80,60,30.06,29.93,29.84,10,10,6,22,10,26,0.01,4,Rain,239
2014-5-27,78,64,51,59,55,49,100,79,39,29.91,29.86,29.81,10,10,2,14,7,20,0.00,5,Rain-Thunderstorm,107
2014-5-28,52,49,46,52,48,43,100,95,77,30.18,30.00,29.83,10,4,1,25,14,32,0.01,7,Rain-Thunderstorm,41
2014-5-29,60,50,41,46,43,36,100,75,39,30.23,30.20,30.17,10,10,10,15,7,20,0.00,1,,48
2014-5-30,62,48,35,48,42,34,100,72,45,30.17,30.08,30.03,10,10,8,12,3,18,0.00,3,,167
2014-5-31,60,53,46,50,48,45,100,79,50,30.27,30.15,30.04,10,10,9,26,7,30,0.00,4,,21